Time;durP1;ratioP1;P1;durP2;ratioP2;P2;SDS_P1;SDS_P2;PMS_P1;PMS_P2;Temp;Humidity;BMP_temperature;BMP_pressure;BME280_temperature;BME280_humidity;BME280_pressure;Samples;Min_cycle;Max_cycle;Signal;HPM_P1;HPM_P2
2023/04/05 05:01:21;;;;;;;;;37.75;29.25;;;;;;;;5533583;22;47340;-51
2023/04/05 05:03:46;;;;;;;;;33.25;28.50;;;;;;;;4983324;28;45617;-54
2023/04/05 05:06:15;;;;;;;;;40.50;32.75;;;;;;;;4992659;28;45693;-53
2023/04/05 05:08:40;;;;;;;;;38.75;30.50;;;;;;;;4999298;28;45456;-50
2023/04/05 05:11:06;;;;;;;;;37.25;33.00;;;;;;;;5000277;28;45400;-53
2023/04/05 05:13:31;;;;;;;;;50.75;34.75;;;;;;;;4983155;28;45281;-55
2023/04/05 05:15:59;;;;;;;;;31.75;29.25;;;;;;;;5008052;28;45345;-54
2023/04/05 05:18:24;;;;;;;;;37.00;31.75;;;;;;;;5002542;28;45413;-52
2023/04/05 05:20:51;;;;;;;;;40.50;35.25;;;;;;;;5000209;28;45445;-53
2023/04/05 05:23:16;;;;;;;;;32.25;29.75;;;;;;;;4999993;28;45452;-53
2023/04/05 05:25:41;;;;;;;;;43.75;34.50;;;;;;;;4999391;28;45577;-51
2023/04/05 05:28:06;;;;;;;;;35.75;34.50;;;;;;;;4999025;28;45381;-53
2023/04/05 05:30:32;;;;;;;;;39.50;34.25;;;;;;;;4999818;28;45301;-51
2023/04/05 05:32:57;;;;;;;;;35.50;32.75;;;;;;;;4998901;28;45324;-53
2023/04/05 05:35:22;;;;;;;;;45.00;36.50;;;;;;;;4979910;28;47140;-53
2023/04/05 05:37:47;;;;;;;;;41.50;32.75;;;;;;;;5000458;28;45504;-55
2023/04/05 05:40:14;;;;;;;;;44.75;32.25;;;;;;;;5000102;28;45517;-51
2023/04/05 05:42:39;;;;;;;;;39.25;30.25;;;;;;;;5000146;28;45531;-53
2023/04/05 05:45:05;;;;;;;;;49.75;37.50;;;;;;;;4998968;28;46039;-54
2023/04/05 05:47:30;;;;;;;;;47.00;34.75;;;;;;;;5005492;28;45514;-51
2023/04/05 05:49:56;;;;;;;;;31.25;30.00;;;;;;;;5000516;28;45447;-53
2023/04/05 05:52:22;;;;;;;;;47.75;40.00;;;;;;;;4998318;28;45353;-54
2023/04/05 05:54:47;;;;;;;;;40.75;33.75;;;;;;;;5000332;28;45861;-54
2023/04/05 05:57:12;;;;;;;;;40.00;35.00;;;;;;;;4999423;28;45343;-55
2023/04/05 05:59:37;;;;;;;;;37.50;31.25;;;;;;;;4999407;28;45549;-54
2023/04/05 06:02:02;;;;;;;;;42.25;34.25;;;;;;;;4999640;28;45352;-54
2023/04/05 06:04:28;;;;;;;;;35.00;32.75;;;;;;;;5000044;28;45480;-54
2023/04/05 06:06:53;;;;;;;;;39.00;30.75;;;;;;;;4999982;28;46005;-56
2023/04/05 06:09:18;;;;;;;;;38.25;35.00;;;;;;;;4999207;28;45247;-54
2023/04/05 06:11:43;;;;;;;;;34.50;32.25;;;;;;;;4999668;28;45461;-55
2023/04/05 06:14:09;;;;;;;;;34.00;32.75;;;;;;;;4999966;28;46218;-55
2023/04/05 06:16:34;;;;;;;;;41.50;36.25;;;;;;;;4983275;28;45346;-56
2023/04/05 06:19:00;;;;;;;;;42.75;34.50;;;;;;;;4982688;28;45494;-55
2023/04/05 06:21:25;;;;;;;;;39.75;34.00;;;;;;;;4999721;28;45353;-55
2023/04/05 06:23:50;;;;;;;;;38.25;31.50;;;;;;;;4998597;28;45928;-58
2023/04/05 06:26:17;;;;;;;;;38.50;35.00;;;;;;;;4999426;28;45945;-54
2023/04/05 06:28:43;;;;;;;;;34.25;33.50;;;;;;;;5002224;28;45399;-60
2023/04/05 06:34:11;;;;;;;;;44.00;34.50;;;;;;;;4993898;28;46242;-54
2023/04/05 06:36:36;;;;;;;;;43.25;37.00;;;;;;;;4998003;28;45578;-55
2023/04/05 06:39:01;;;;;;;;;38.50;34.25;;;;;;;;5008629;28;45561;-55
2023/04/05 06:41:27;;;;;;;;;33.75;28.75;;;;;;;;5004561;28;45440;-55
2023/04/05 06:43:52;;;;;;;;;41.25;33.00;;;;;;;;4998475;28;48604;-56
2023/04/05 06:46:17;;;;;;;;;40.00;32.75;;;;;;;;4976718;28;46072;-55
2023/04/05 06:48:43;;;;;;;;;40.00;33.50;;;;;;;;4984268;28;45818;-55
2023/04/05 06:51:08;;;;;;;;;39.33;33.33;;;;;;;;4987511;28;45715;-55
2023/04/05 06:53:33;;;;;;;;;20.00;19.33;;;;;;;;4997601;28;45353;-55
2023/04/05 06:55:58;;;;;;;;;40.33;33.67;;;;;;;;4982032;28;45977;-53
2023/04/05 06:58:25;;;;;;;;;44.67;35.67;;;;;;;;4982817;28;45491;-54
2023/04/05 07:00:50;;;;;;;;;32.33;31.33;;;;;;;;4993348;28;45451;-56
2023/04/05 07:03:16;;;;;;;;;40.67;34.67;;;;;;;;4999768;28;46260;-54
2023/04/05 07:05:48;;;;;;;;;50.67;37.33;;;;;;;;5001129;28;45954;-51
2023/04/05 07:08:13;;;;;;;;;38.00;34.00;;;;;;;;5000751;28;45466;-53
2023/04/05 07:10:39;;;;;;;;;40.33;33.67;;;;;;;;4998205;28;45520;-55
2023/04/05 07:13:04;;;;;;;;;37.33;34.33;;;;;;;;4994514;28;45470;-53
2023/04/05 07:15:29;;;;;;;;;43.00;34.00;;;;;;;;4979303;28;45539;-53
2023/04/05 07:17:54;;;;;;;;;45.67;36.33;;;;;;;;4997342;28;45737;-56
2023/04/05 07:20:20;;;;;;;;;38.33;34.67;;;;;;;;4996846;28;45327;-55
2023/04/05 07:22:45;;;;;;;;;45.00;38.33;;;;;;;;4997298;28;45492;-52
2023/04/05 07:25:11;;;;;;;;;45.00;37.00;;;;;;;;4997248;28;45309;-53
2023/04/05 07:27:38;;;;;;;;;39.00;33.33;;;;;;;;4996701;28;45499;-52
2023/04/05 07:30:03;;;;;;;;;43.33;34.67;;;;;;;;4996910;28;45423;-53
2023/04/05 07:32:29;;;;;;;;;39.00;33.00;;;;;;;;4997432;28;45449;-54
2023/04/05 07:34:55;;;;;;;;;44.00;38.00;;;;;;;;4979882;28;45457;-53
2023/04/05 07:37:20;;;;;;;;;45.67;36.00;;;;;;;;4994251;28;45497;-54
2023/04/05 07:39:46;;;;;;;;;43.00;36.50;;;;;;;;4997625;28;45568;-53
2023/04/05 07:42:11;;;;;;;;;45.33;35.67;;;;;;;;4997375;28;46018;-52
2023/04/05 07:44:36;;;;;;;;;46.00;36.67;;;;;;;;4998741;28;45474;-54
2023/04/05 07:47:02;;;;;;;;;42.33;36.00;;;;;;;;4997779;28;45357;-53
2023/04/05 07:49:29;;;;;;;;;41.33;34.33;;;;;;;;4997327;28;45444;-53
2023/04/05 07:51:55;;;;;;;;;42.00;34.75;;;;;;;;4996740;28;45649;-53
2023/04/05 07:54:20;;;;;;;;;39.75;34.25;;;;;;;;4996627;28;45487;-53
2023/04/05 07:56:45;;;;;;;;;49.50;37.25;;;;;;;;4999237;28;45345;-52
2023/04/05 07:59:11;;;;;;;;;43.50;35.75;;;;;;;;4999964;28;45458;-53
2023/04/05 08:01:36;;;;;;;;;37.25;33.50;;;;;;;;4995211;28;45761;-52
2023/04/05 08:04:02;;;;;;;;;42.50;35.75;;;;;;;;5000205;28;45341;-54
2023/04/05 08:06:27;;;;;;;;;36.25;33.75;;;;;;;;5006171;28;45440;-53
2023/04/05 08:08:52;;;;;;;;;39.00;33.75;;;;;;;;4998515;28;45642;-52
2023/04/05 08:11:17;;;;;;;;;45.25;35.75;;;;;;;;5002227;28;45353;-53
2023/04/05 08:13:42;;;;;;;;;32.25;30.75;;;;;;;;5001539;28;45462;-53
2023/04/05 08:16:08;;;;;;;;;44.25;36.75;;;;;;;;4999930;28;45456;-55
2023/04/05 08:18:34;;;;;;;;;45.00;36.25;;;;;;;;5002198;28;45726;-55
2023/04/05 08:20:59;;;;;;;;;36.75;33.50;;;;;;;;5006748;28;47083;-56
2023/04/05 08:23:25;;;;;;;;;44.50;35.00;;;;;;;;5000214;28;45367;-53
2023/04/05 08:25:51;;;;;;;;;39.00;34.25;;;;;;;;5007617;28;45308;-55
2023/04/05 08:28:16;;;;;;;;;39.25;33.25;;;;;;;;5002572;28;45640;-54
2023/04/05 08:30:41;;;;;;;;;36.00;33.50;;;;;;;;4985257;28;45890;-53
2023/04/05 08:33:07;;;;;;;;;45.75;35.00;;;;;;;;5003291;28;45489;-55
2023/04/05 08:35:35;;;;;;;;;41.00;35.25;;;;;;;;5004350;28;45375;-53
2023/04/05 08:38:00;;;;;;;;;40.50;32.25;;;;;;;;5005364;28;45456;-55
2023/04/05 08:40:35;;;;;;;;;43.50;34.75;;;;;;;;5001088;28;45407;-55
2023/04/05 08:43:05;;;;;;;;;41.00;32.25;;;;;;;;5000145;28;45340;-57
2023/04/05 08:45:33;;;;;;;;;34.25;32.75;;;;;;;;5000623;28;45460;-56
2023/04/05 08:47:58;;;;;;;;;39.25;32.75;;;;;;;;4999874;28;45597;-54
2023/04/05 08:50:23;;;;;;;;;38.50;34.00;;;;;;;;4999690;28;46134;-53
2023/04/05 08:52:49;;;;;;;;;36.75;31.75;;;;;;;;4981723;28;46176;-55
2023/04/05 08:55:14;;;;;;;;;38.75;32.75;;;;;;;;4998248;28;45451;-54
2023/04/05 08:57:42;;;;;;;;;38.50;33.00;;;;;;;;5000337;28;45392;-52
2023/04/05 09:00:07;;;;;;;;;35.50;31.50;;;;;;;;4998720;28;45430;-55
2023/04/05 09:02:33;;;;;;;;;47.00;34.25;;;;;;;;4999656;28;45357;-56
2023/04/05 09:04:59;;;;;;;;;37.50;32.50;;;;;;;;5000059;28;45670;-53
2023/04/05 09:07:26;;;;;;;;;46.50;33.75;;;;;;;;4997403;28;45347;-54
2023/04/05 09:09:52;;;;;;;;;41.00;33.67;;;;;;;;4999986;28;45546;-54
2023/04/05 09:12:19;;;;;;;;;40.00;33.00;;;;;;;;4999031;28;45495;-54
2023/04/05 09:14:47;;;;;;;;;39.00;32.33;;;;;;;;4999642;28;45397;-54
2023/04/05 09:17:14;;;;;;;;;32.33;29.67;;;;;;;;4995854;28;45590;-55
2023/04/05 09:19:39;;;;;;;;;31.00;29.00;;;;;;;;4998478;28;45454;-55
2023/04/05 09:22:08;;;;;;;;;33.67;30.00;;;;;;;;4999148;28;45330;-55
2023/04/05 09:24:33;;;;;;;;;34.67;30.33;;;;;;;;4998632;28;45747;-55
2023/04/05 09:27:08;;;;;;;;;36.67;31.00;;;;;;;;4998130;28;45902;-54
2023/04/05 09:29:33;;;;;;;;;32.00;31.00;;;;;;;;4995195;28;47442;-55
2023/04/05 09:31:59;;;;;;;;;35.00;28.33;;;;;;;;4998917;28;45425;-55
2023/04/05 09:34:25;;;;;;;;;32.00;30.00;;;;;;;;4999215;28;45660;-56
2023/04/05 09:36:51;;;;;;;;;20.00;18.00;;;;;;;;4995960;28;45551;-56
2023/04/05 09:39:21;;;;;;;;;25.33;25.33;;;;;;;;4997089;28;45509;-56
2023/04/05 09:42:03;;;;;;;;;32.67;30.00;;;;;;;;4998254;28;45785;-55
2023/04/05 09:44:46;;;;;;;;;37.00;31.33;;;;;;;;4989576;28;45495;-56
2023/04/05 09:47:16;;;;;;;;;37.67;32.67;;;;;;;;4998080;28;45564;-56
2023/04/05 09:49:41;;;;;;;;;28.33;27.00;;;;;;;;4998769;28;45679;-56
2023/04/05 09:52:16;;;;;;;;;25.67;24.00;;;;;;;;4998721;28;45457;-57
2023/04/05 09:54:41;;;;;;;;;33.67;26.67;;;;;;;;5001854;28;45774;-57
2023/04/05 09:57:09;;;;;;;;;30.33;29.67;;;;;;;;5003491;28;45594;-57
2023/04/05 09:59:34;;;;;;;;;36.67;29.00;;;;;;;;4998810;28;47287;-57
2023/04/05 10:01:59;;;;;;;;;36.00;28.00;;;;;;;;4998966;28;45332;-57
2023/04/05 10:04:25;;;;;;;;;26.00;25.00;;;;;;;;4997754;28;45542;-57
2023/04/05 10:06:51;;;;;;;;;32.33;27.33;;;;;;;;4999295;28;45249;-57
2023/04/05 10:09:18;;;;;;;;;25.00;21.67;;;;;;;;4998285;28;45764;-57
2023/04/05 10:11:44;;;;;;;;;29.33;27.33;;;;;;;;4999182;28;45457;-56
2023/04/05 10:14:09;;;;;;;;;31.33;29.00;;;;;;;;4997696;28;45451;-57
2023/04/05 10:16:51;;;;;;;;;26.33;23.33;;;;;;;;4993021;28;45437;-57
2023/04/05 10:19:40;;;;;;;;;34.67;27.33;;;;;;;;4994995;28;45593;-57
2023/04/05 10:22:10;;;;;;;;;25.33;25.00;;;;;;;;4996899;28;45430;-57
2023/04/05 10:24:48;;;;;;;;;22.00;21.67;;;;;;;;5001473;28;45315;-57
2023/04/05 10:27:19;;;;;;;;;25.33;21.67;;;;;;;;4995179;28;45420;-57
2023/04/05 10:30:00;;;;;;;;;24.67;23.33;;;;;;;;4998069;28;45964;-57
2023/04/05 10:32:48;;;;;;;;;23.33;22.33;;;;;;;;4995998;28;45732;-57
2023/04/05 10:35:18;;;;;;;;;23.67;22.33;;;;;;;;4995081;28;45570;-57
2023/04/05 10:37:53;;;;;;;;;23.00;22.00;;;;;;;;4992361;28;45575;-57
2023/04/05 10:40:20;;;;;;;;;28.00;25.33;;;;;;;;4997365;28;45424;-57
2023/04/05 10:42:45;;;;;;;;;24.00;22.00;;;;;;;;4999978;28;45671;-57
2023/04/05 10:45:18;;;;;;;;;27.00;21.67;;;;;;;;5001639;28;45725;-57
2023/04/05 10:47:48;;;;;;;;;22.67;19.67;;;;;;;;5003835;28;45389;-58
2023/04/05 10:50:20;;;;;;;;;22.00;21.33;;;;;;;;4983967;28;47117;-57
2023/04/05 10:52:46;;;;;;;;;25.33;21.00;;;;;;;;4996492;28;45428;-57
2023/04/05 10:55:11;;;;;;;;;20.00;17.00;;;;;;;;5000219;28;45370;-57
2023/04/05 10:57:37;;;;;;;;;22.67;21.33;;;;;;;;4979802;28;45325;-57
2023/04/05 11:00:04;;;;;;;;;25.33;22.33;;;;;;;;5001214;28;46326;-57
2023/04/05 11:02:29;;;;;;;;;21.00;19.33;;;;;;;;4998391;28;45472;-57
2023/04/05 11:04:55;;;;;;;;;22.33;22.33;;;;;;;;4996247;28;45766;-57
2023/04/05 11:07:20;;;;;;;;;25.00;22.67;;;;;;;;4981574;28;45962;-57
2023/04/05 11:09:52;;;;;;;;;19.67;19.67;;;;;;;;5005401;28;45432;-57
2023/04/05 11:12:17;;;;;;;;;18.67;18.00;;;;;;;;5000305;28;45470;-57
2023/04/05 11:14:43;;;;;;;;;28.33;23.67;;;;;;;;4995939;28;45629;-57
2023/04/05 11:17:25;;;;;;;;;17.67;15.67;;;;;;;;4999497;28;45471;-57
2023/04/05 11:19:51;;;;;;;;;20.67;19.33;;;;;;;;5008934;28;45563;-57
2023/04/05 11:22:26;;;;;;;;;19.33;17.33;;;;;;;;4999486;28;45475;-57
2023/04/05 11:25:00;;;;;;;;;21.33;19.33;;;;;;;;4993091;28;45336;-57
2023/04/05 11:27:29;;;;;;;;;20.33;19.33;;;;;;;;4996872;28;45366;-57
2023/04/05 11:29:56;;;;;;;;;20.33;19.67;;;;;;;;4980391;28;47114;-57
2023/04/05 11:32:22;;;;;;;;;22.33;20.33;;;;;;;;5003656;28;45797;-57
2023/04/05 11:34:57;;;;;;;;;19.67;17.00;;;;;;;;4997284;28;45405;-57
2023/04/05 11:37:23;;;;;;;;;21.33;16.33;;;;;;;;4997600;28;45766;-58
2023/04/05 11:39:48;;;;;;;;;20.67;17.33;;;;;;;;4992394;28;46160;-58
2023/04/05 11:42:15;;;;;;;;;20.00;18.67;;;;;;;;4991867;28;45428;-57
2023/04/05 11:44:42;;;;;;;;;20.33;18.67;;;;;;;;4995738;28;45479;-57
2023/04/05 11:47:08;;;;;;;;;18.00;16.67;;;;;;;;4996352;28;45519;-57
2023/04/05 11:49:33;;;;;;;;;24.67;18.67;;;;;;;;4974891;28;47269;-58
2023/04/05 11:52:08;;;;;;;;;20.67;19.33;;;;;;;;4996263;28;45877;-58
2023/04/05 11:54:34;;;;;;;;;22.67;19.33;;;;;;;;4996626;28;45440;-58
2023/04/05 11:57:00;;;;;;;;;20.33;19.33;;;;;;;;4996267;28;45702;-58
2023/04/05 11:59:29;;;;;;;;;24.33;21.00;;;;;;;;4977471;28;47087;-58
2023/04/05 12:01:58;;;;;;;;;18.00;18.00;;;;;;;;4997022;28;45397;-56
2023/04/05 12:04:23;;;;;;;;;18.00;17.67;;;;;;;;4977551;28;45431;-56
2023/04/05 12:07:06;;;;;;;;;18.33;17.33;;;;;;;;4979289;28;45587;-56
2023/04/05 12:09:31;;;;;;;;;21.00;21.00;;;;;;;;4997249;28;45855;-57
2023/04/05 12:11:57;;;;;;;;;18.67;17.33;;;;;;;;4994464;28;45681;-57
2023/04/05 12:14:22;;;;;;;;;19.00;16.00;;;;;;;;4997689;28;45538;-58
2023/04/05 12:16:48;;;;;;;;;19.33;17.00;;;;;;;;4996118;28;45540;-57
2023/04/05 12:19:15;;;;;;;;;16.33;16.33;;;;;;;;4980179;28;46976;-57
2023/04/05 12:21:40;;;;;;;;;19.33;18.33;;;;;;;;4999214;28;45606;-58
2023/04/05 12:24:05;;;;;;;;;21.00;18.00;;;;;;;;4997195;28;45501;-58
2023/04/05 12:26:33;;;;;;;;;21.67;20.00;;;;;;;;4976502;28;45669;-58
2023/04/05 12:29:00;;;;;;;;;20.67;18.67;;;;;;;;4998576;28;45555;-58
2023/04/05 12:31:35;;;;;;;;;22.33;21.00;;;;;;;;4997981;28;45398;-56
2023/04/05 12:34:00;;;;;;;;;19.67;16.67;;;;;;;;4997503;28;45516;-56
2023/04/05 12:36:26;;;;;;;;;16.67;14.33;;;;;;;;4995654;28;45658;-57
2023/04/05 12:38:53;;;;;;;;;22.33;19.33;;;;;;;;4977867;28;45726;-57
2023/04/05 12:41:25;;;;;;;;;18.00;17.33;;;;;;;;4999368;28;45538;-57
2023/04/05 12:43:52;;;;;;;;;23.33;19.00;;;;;;;;5004681;28;45348;-55
2023/04/05 12:46:18;;;;;;;;;20.00;16.00;;;;;;;;4983394;28;45604;-57
2023/04/05 12:48:48;;;;;;;;;16.00;15.67;;;;;;;;4982195;28;47349;-58
2023/04/05 12:51:15;;;;;;;;;18.00;15.33;;;;;;;;5005384;28;45391;-57
2023/04/05 12:53:45;;;;;;;;;18.33;17.00;;;;;;;;4984552;28;45359;-55
2023/04/05 12:56:11;;;;;;;;;21.33;15.67;;;;;;;;5000704;28;45600;-56
2023/04/05 12:58:36;;;;;;;;;18.00;15.00;;;;;;;;5006451;28;45677;-56
2023/04/05 13:01:04;;;;;;;;;17.00;13.33;;;;;;;;5001260;28;46192;-56
2023/04/05 13:03:30;;;;;;;;;18.67;13.67;;;;;;;;5005804;28;45801;-57
2023/04/05 13:05:55;;;;;;;;;15.67;13.67;;;;;;;;4984503;28;45246;-57
2023/04/05 13:08:20;;;;;;;;;18.67;16.00;;;;;;;;5004425;28;45805;-56
2023/04/05 13:10:46;;;;;;;;;16.00;14.67;;;;;;;;5001765;28;45454;-56
2023/04/05 13:13:12;;;;;;;;;16.33;15.67;;;;;;;;4996303;28;45529;-56
2023/04/05 13:15:37;;;;;;;;;18.00;16.33;;;;;;;;5004873;28;45554;-56
2023/04/05 13:18:03;;;;;;;;;13.00;11.33;;;;;;;;5001808;28;45651;-57
2023/04/05 13:20:28;;;;;;;;;14.00;14.00;;;;;;;;5002114;28;45364;-56
2023/04/05 13:22:53;;;;;;;;;15.00;15.00;;;;;;;;5000771;28;45376;-56
2023/04/05 13:25:18;;;;;;;;;18.00;18.00;;;;;;;;5000659;28;45517;-55
2023/04/05 13:27:43;;;;;;;;;16.67;16.33;;;;;;;;5002445;28;46549;-54
2023/04/05 13:30:09;;;;;;;;;14.67;14.67;;;;;;;;4999017;28;45765;-56
2023/04/05 13:32:34;;;;;;;;;15.00;12.50;;;;;;;;4995798;28;45872;-56
2023/04/05 13:35:00;;;;;;;;;14.00;13.00;;;;;;;;4999626;28;45400;-56
2023/04/05 13:37:25;;;;;;;;;15.00;15.00;;;;;;;;4992833;28;47904;-55
2023/04/05 13:39:50;;;;;;;;;20.67;17.67;;;;;;;;5000467;28;45574;-55
2023/04/05 13:42:16;;;;;;;;;19.67;16.33;;;;;;;;4999800;28;45326;-55
2023/04/05 13:44:41;;;;;;;;;20.00;15.67;;;;;;;;4999851;28;49038;-55
2023/04/05 13:47:07;;;;;;;;;17.33;17.00;;;;;;;;5000461;28;45424;-55
2023/04/05 13:49:32;;;;;;;;;19.33;16.33;;;;;;;;4987423;28;45439;-54
2023/04/05 13:51:57;;;;;;;;;18.67;16.00;;;;;;;;4986810;28;45497;-55
2023/04/05 13:54:22;;;;;;;;;17.33;14.00;;;;;;;;4998583;28;45450;-53
2023/04/05 13:56:47;;;;;;;;;22.33;18.33;;;;;;;;4986572;28;48556;-54
2023/04/05 13:59:18;;;;;;;;;16.00;14.67;;;;;;;;4984226;28;46285;-53
2023/04/05 14:01:43;;;;;;;;;20.00;18.67;;;;;;;;4997987;28;46464;-55
2023/04/05 14:04:08;;;;;;;;;22.67;19.67;;;;;;;;4992616;28;46143;-55
2023/04/05 14:06:33;;;;;;;;;24.67;18.33;;;;;;;;4996753;28;45594;-53
2023/04/05 14:08:59;;;;;;;;;19.33;15.67;;;;;;;;4980414;28;45452;-54
2023/04/05 14:11:24;;;;;;;;;20.00;17.00;;;;;;;;4996530;28;45414;-52
2023/04/05 14:13:50;;;;;;;;;23.67;18.67;;;;;;;;4992006;28;45543;-51
2023/04/05 14:16:16;;;;;;;;;23.33;18.33;;;;;;;;4996040;28;45558;-49
2023/04/05 14:18:42;;;;;;;;;18.33;17.67;;;;;;;;4997921;28;45718;-49
2023/04/05 14:21:07;;;;;;;;;21.67;19.67;;;;;;;;4998675;28;45685;-49
2023/04/05 14:23:32;;;;;;;;;20.00;19.33;;;;;;;;4981874;28;45406;-51
2023/04/05 14:25:57;;;;;;;;;20.67;19.00;;;;;;;;4999404;28;46052;-51
2023/04/05 14:28:22;;;;;;;;;25.00;21.67;;;;;;;;4999202;28;45370;-52
2023/04/05 14:30:48;;;;;;;;;22.33;19.00;;;;;;;;5011000;28;45445;-48
2023/04/05 14:33:14;;;;;;;;;19.00;17.00;;;;;;;;4981689;28;45361;-49
2023/04/05 14:35:40;;;;;;;;;20.00;17.67;;;;;;;;4999337;28;47011;-52
2023/04/05 14:38:05;;;;;;;;;20.00;17.33;;;;;;;;4998550;28;45395;-51
2023/04/05 14:40:30;;;;;;;;;8.00;7.00;;;;;;;;4999590;28;45380;-51
2023/04/05 14:42:56;;;;;;;;;21.33;17.00;;;;;;;;4999743;28;45357;-51
2023/04/05 14:45:22;;;;;;;;;22.33;17.67;;;;;;;;4998552;28;45515;-50
2023/04/05 14:47:47;;;;;;;;;19.00;18.33;;;;;;;;4991330;28;45460;-52
2023/04/05 14:50:12;;;;;;;;;20.33;17.33;;;;;;;;4999112;28;45420;-51
2023/04/05 14:52:38;;;;;;;;;18.33;18.33;;;;;;;;4998851;28;45458;-52
2023/04/05 14:55:04;;;;;;;;;18.33;17.33;;;;;;;;4998892;28;45407;-52
2023/04/05 14:57:29;;;;;;;;;20.33;19.33;;;;;;;;4981170;28;45421;-55
2023/04/05 14:59:54;;;;;;;;;26.00;23.00;;;;;;;;4999305;28;45372;-52
2023/04/05 15:02:19;;;;;;;;;19.33;18.33;;;;;;;;4998436;28;45394;-53
2023/04/05 15:04:45;;;;;;;;;19.67;17.67;;;;;;;;4989207;28;46068;-52
2023/04/05 15:07:10;;;;;;;;;16.33;16.33;;;;;;;;5007708;28;45520;-53
2023/04/05 15:09:35;;;;;;;;;18.00;15.33;;;;;;;;5008219;28;45450;-51
2023/04/05 15:12:01;;;;;;;;;20.67;19.33;;;;;;;;5002090;28;45321;-50
2023/04/05 15:14:26;;;;;;;;;21.00;18.33;;;;;;;;5004157;28;46182;-53
2023/04/05 15:16:52;;;;;;;;;17.00;17.00;;;;;;;;4998607;28;45398;-52
2023/04/05 15:19:17;;;;;;;;;21.33;17.00;;;;;;;;4998252;28;45486;-53
2023/04/05 15:21:42;;;;;;;;;21.00;16.33;;;;;;;;4998929;28;45479;-49
2023/04/05 15:24:08;;;;;;;;;13.33;12.00;;;;;;;;4998405;28;47051;-53
2023/04/05 15:26:33;;;;;;;;;16.33;14.00;;;;;;;;4998763;28;45342;-50
2023/04/05 15:28:58;;;;;;;;;18.00;14.33;;;;;;;;4998873;28;45504;-49
2023/04/05 15:31:23;;;;;;;;;15.67;13.33;;;;;;;;4998404;28;45239;-51
2023/04/05 15:33:49;;;;;;;;;18.67;15.33;;;;;;;;4998450;28;45388;-53
2023/04/05 15:36:14;;;;;;;;;18.00;15.33;;;;;;;;5005775;28;45414;-51
2023/04/05 15:38:39;;;;;;;;;14.00;12.67;;;;;;;;4998285;28;45632;-50
2023/04/05 15:41:06;;;;;;;;;22.00;15.33;;;;;;;;4998033;28;45461;-53
2023/04/05 15:43:32;;;;;;;;;12.67;11.67;;;;;;;;4980549;28;46968;-52
2023/04/05 15:45:58;;;;;;;;;17.67;11.33;;;;;;;;5000498;28;45503;-51
2023/04/05 15:48:23;;;;;;;;;17.33;16.00;;;;;;;;4996447;28;45372;-50
2023/04/05 15:50:48;;;;;;;;;16.00;14.00;;;;;;;;4998496;28;45446;-51
2023/04/05 15:53:13;;;;;;;;;14.67;13.33;;;;;;;;4997520;28;46170;-53
2023/04/05 15:55:39;;;;;;;;;16.33;15.33;;;;;;;;4998141;28;45495;-52
2023/04/05 15:58:04;;;;;;;;;14.67;13.67;;;;;;;;4998568;28;45436;-52
2023/04/05 16:00:29;;;;;;;;;16.33;11.33;;;;;;;;5000306;28;45618;-52
2023/04/05 16:02:57;;;;;;;;;15.00;13.00;;;;;;;;4999466;28;46746;-52
2023/04/05 16:05:23;;;;;;;;;15.33;12.67;;;;;;;;4993858;28;45901;-53
2023/04/05 16:07:48;;;;;;;;;15.00;15.00;;;;;;;;4996935;28;45371;-53
2023/04/05 16:10:13;;;;;;;;;13.00;11.33;;;;;;;;5003845;28;45502;-53
2023/04/05 16:12:38;;;;;;;;;10.33;9.00;;;;;;;;5005074;28;46022;-53
2023/04/05 16:15:04;;;;;;;;;11.67;11.67;;;;;;;;5000087;28;45463;-50
2023/04/05 16:17:29;;;;;;;;;13.00;13.00;;;;;;;;5000695;28;45364;-54
2023/04/05 16:19:54;;;;;;;;;12.33;11.00;;;;;;;;5007750;28;45400;-52
2023/04/05 16:22:20;;;;;;;;;11.00;9.67;;;;;;;;5011859;28;45249;-54
2023/04/05 16:24:45;;;;;;;;;11.33;10.67;;;;;;;;5001822;28;45324;-49
2023/04/05 16:27:11;;;;;;;;;17.67;13.33;;;;;;;;5000916;28;45445;-50
2023/04/05 16:29:36;;;;;;;;;15.00;14.33;;;;;;;;5004831;28;45728;-50
2023/04/05 16:32:01;;;;;;;;;14.33;11.33;;;;;;;;5002642;28;46110;-52
2023/04/05 16:34:26;;;;;;;;;12.00;10.67;;;;;;;;5009556;28;45429;-52
2023/04/05 16:36:52;;;;;;;;;10.33;8.00;;;;;;;;5000871;28;45443;-52
2023/04/05 16:39:17;;;;;;;;;13.00;12.00;;;;;;;;4974444;28;45583;-51
2023/04/05 16:41:42;;;;;;;;;12.33;11.00;;;;;;;;4999396;28;45503;-52
2023/04/05 16:44:08;;;;;;;;;12.33;11.67;;;;;;;;5005812;28;45459;-50
2023/04/05 16:46:33;;;;;;;;;9.67;9.00;;;;;;;;4995271;28;45614;-51
2023/04/05 16:48:58;;;;;;;;;10.67;9.33;;;;;;;;4979032;28;45727;-53
2023/04/05 16:51:24;;;;;;;;;10.33;9.00;;;;;;;;4999226;28;45919;-49
2023/04/05 16:53:50;;;;;;;;;7.00;5.67;;;;;;;;4981484;28;45438;-53
2023/04/05 16:56:15;;;;;;;;;11.67;10.67;;;;;;;;4998872;28;45525;-53
2023/04/05 16:58:40;;;;;;;;;13.00;10.00;;;;;;;;4999933;28;45436;-53
2023/04/05 17:01:05;;;;;;;;;11.67;10.00;;;;;;;;4998909;28;46559;-49
2023/04/05 17:03:31;;;;;;;;;8.00;8.00;;;;;;;;4999719;28;45799;-52
2023/04/05 17:05:56;;;;;;;;;10.67;9.00;;;;;;;;5002865;28;45753;-52
2023/04/05 17:08:21;;;;;;;;;8.67;7.67;;;;;;;;4975362;28;45551;-52
2023/04/05 17:10:47;;;;;;;;;11.33;6.67;;;;;;;;5004279;28;46722;-51
2023/04/05 17:13:13;;;;;;;;;11.67;10.00;;;;;;;;4975029;28;45620;-48
2023/04/05 17:15:38;;;;;;;;;8.67;8.00;;;;;;;;4998396;28;45581;-52
2023/04/05 17:18:04;;;;;;;;;11.67;7.00;;;;;;;;4985971;28;45453;-48
2023/04/05 17:20:30;;;;;;;;;9.00;9.00;;;;;;;;5001012;28;46353;-51
2023/04/05 17:22:57;;;;;;;;;8.33;7.67;;;;;;;;5002001;28;45553;-53
2023/04/05 17:25:22;;;;;;;;;10.00;8.00;;;;;;;;5005506;28;45762;-51
2023/04/05 17:27:47;;;;;;;;;12.33;10.33;;;;;;;;5003695;28;45511;-51
2023/04/05 17:30:12;;;;;;;;;10.33;10.00;;;;;;;;4999134;28;45432;-52
2023/04/05 17:32:38;;;;;;;;;11.00;9.00;;;;;;;;5004537;28;45372;-48
2023/04/05 17:35:03;;;;;;;;;14.00;10.67;;;;;;;;4988472;28;45477;-52
2023/04/05 17:37:28;;;;;;;;;10.67;9.33;;;;;;;;5002253;28;45457;-50
2023/04/05 17:39:53;;;;;;;;;10.00;8.67;;;;;;;;5003196;28;46260;-50
2023/04/05 17:42:19;;;;;;;;;10.67;10.33;;;;;;;;5001948;28;46710;-49
2023/04/05 17:44:44;;;;;;;;;9.33;9.00;;;;;;;;5002475;28;45547;-48
2023/04/05 17:47:09;;;;;;;;;4.33;3.00;;;;;;;;5001199;28;45581;-53
2023/04/05 17:49:36;;;;;;;;;7.67;7.67;;;;;;;;5000869;28;46834;-50
2023/04/05 17:52:01;;;;;;;;;8.00;7.67;;;;;;;;4999719;28;45422;-51
2023/04/05 17:54:26;;;;;;;;;10.67;9.00;;;;;;;;4985003;28;45519;-52
2023/04/05 17:56:52;;;;;;;;;7.00;7.00;;;;;;;;5008466;28;45376;-52
2023/04/05 17:59:17;;;;;;;;;11.33;10.00;;;;;;;;4998679;28;47112;-51
2023/04/05 18:01:42;;;;;;;;;9.33;8.00;;;;;;;;4993616;28;45414;-52
2023/04/05 18:04:07;;;;;;;;;9.33;8.00;;;;;;;;4999951;28;45738;-49
2023/04/05 18:06:33;;;;;;;;;7.33;7.33;;;;;;;;5003016;28;45444;-52
2023/04/05 18:08:58;;;;;;;;;9.00;8.67;;;;;;;;4998128;28;45650;-48
2023/04/05 18:11:24;;;;;;;;;14.00;8.67;;;;;;;;4992184;28;45456;-49
2023/04/05 18:13:49;;;;;;;;;10.00;9.00;;;;;;;;4981000;28;45629;-49
2023/04/05 18:16:14;;;;;;;;;6.33;6.33;;;;;;;;5000178;28;45355;-52
2023/04/05 18:18:40;;;;;;;;;7.00;6.67;;;;;;;;4999771;28;46256;-53
2023/04/05 18:21:05;;;;;;;;;7.67;7.00;;;;;;;;4998985;28;45301;-49
2023/04/05 18:23:30;;;;;;;;;7.67;6.00;;;;;;;;4998823;28;45562;-52
2023/04/05 18:25:56;;;;;;;;;8.00;7.00;;;;;;;;4997304;28;45507;-51
2023/04/05 18:28:22;;;;;;;;;11.67;8.67;;;;;;;;4996683;28;46219;-50
2023/04/05 18:30:49;;;;;;;;;7.00;6.00;;;;;;;;4998288;28;45407;-51
2023/04/05 18:33:16;;;;;;;;;8.33;8.33;;;;;;;;4995010;28;45586;-52
2023/04/05 18:35:41;;;;;;;;;9.67;9.67;;;;;;;;5004908;28;45474;-52
2023/04/05 18:38:06;;;;;;;;;12.00;11.00;;;;;;;;4998098;28;46193;-49
2023/04/05 18:40:32;;;;;;;;;12.67;8.67;;;;;;;;4998234;28;45374;-53
2023/04/05 18:42:57;;;;;;;;;8.33;8.33;;;;;;;;4992542;28;45467;-54
2023/04/05 18:45:22;;;;;;;;;11.33;9.67;;;;;;;;4997466;28;45316;-53
2023/04/05 18:47:48;;;;;;;;;5.33;3.00;;;;;;;;4996636;28;45518;-49
2023/04/05 18:50:13;;;;;;;;;10.67;8.33;;;;;;;;4997099;28;45376;-53
2023/04/05 18:52:38;;;;;;;;;10.33;7.00;;;;;;;;5002134;28;45511;-53
2023/04/05 18:55:04;;;;;;;;;13.00;8.67;;;;;;;;4998617;28;45298;-50
2023/04/05 18:57:29;;;;;;;;;9.33;8.33;;;;;;;;5009378;28;45416;-52
2023/04/05 18:59:54;;;;;;;;;9.67;9.00;;;;;;;;4998465;28;45482;-49
2023/04/05 19:02:20;;;;;;;;;9.00;8.00;;;;;;;;4980402;28;45293;-52
2023/04/05 19:04:45;;;;;;;;;9.67;9.67;;;;;;;;4998076;28;45292;-53
2023/04/05 19:07:10;;;;;;;;;10.00;10.00;;;;;;;;4994594;28;45531;-48
2023/04/05 19:09:36;;;;;;;;;7.67;7.67;;;;;;;;5000188;28;45494;-52
2023/04/05 19:12:01;;;;;;;;;7.33;6.67;;;;;;;;4994410;28;45368;-53
2023/04/05 19:14:26;;;;;;;;;12.33;7.00;;;;;;;;5004696;28;45558;-51
2023/04/05 19:16:52;;;;;;;;;14.00;11.33;;;;;;;;5012007;28;46424;-52
2023/04/05 19:19:17;;;;;;;;;14.00;11.00;;;;;;;;4997699;28;45401;-54